createdAt,value
2018-07-31T00:00:33.369Z,15.40
2018-07-31T00:01:39.054Z,15.00
2018-07-31T00:02:44.814Z,13.63
2018-07-31T00:03:50.360Z,15.00
2018-07-31T00:04:55.828Z,16.37
2018-07-31T00:06:01.320Z,17.00
2018-07-31T00:07:06.849Z,16.83
2018-07-31T00:08:13.116Z,14.80
2018-07-31T00:09:18.600Z,18.00
2018-07-31T00:10:24.044Z,16.33
2018-07-31T00:11:29.500Z,15.43
2018-07-31T00:12:35.582Z,17.60
2018-07-31T00:13:41.185Z,17.20
2018-07-31T00:14:46.784Z,17.17
2018-07-31T00:15:52.221Z,17.70
2018-07-31T00:16:57.343Z,17.20
2018-07-31T00:18:02.387Z,16.73
2018-07-31T00:19:07.787Z,17.10
2018-07-31T00:20:13.460Z,17.77
2018-07-31T00:21:19.069Z,16.60
2018-07-31T00:22:24.506Z,16.73
2018-07-31T00:23:29.936Z,17.73
2018-07-31T00:24:35.572Z,18.17
2018-07-31T00:25:41.190Z,17.80
2018-07-31T00:26:46.912Z,16.30
2018-07-31T00:27:52.381Z,17.43
2018-07-31T00:28:57.836Z,19.60
2018-07-31T00:30:03.349Z,18.10
2018-07-31T00:31:08.880Z,17.97
2018-07-31T00:32:15.177Z,16.83
2018-07-31T00:33:20.633Z,16.90
2018-07-31T00:34:26.070Z,16.70
2018-07-31T00:35:31.692Z,17.13
2018-07-31T00:36:37.184Z,16.97
2018-07-31T00:37:43.372Z,17.80
2018-07-31T00:38:48.941Z,16.10
2018-07-31T00:39:54.496Z,16.10
2018-07-31T00:41:00.045Z,15.80
2018-07-31T00:42:05.786Z,16.90
2018-07-31T00:43:11.377Z,16.30
2018-07-31T00:44:17.117Z,16.60
2018-07-31T00:45:22.855Z,15.57
2018-07-31T00:46:28.280Z,15.60
2018-07-31T00:47:33.788Z,15.40
2018-07-31T00:48:39.319Z,13.57
2018-07-31T00:49:44.805Z,15.90
2018-07-31T00:50:50.395Z,13.27
2018-07-31T00:51:55.851Z,12.90
2018-07-31T00:53:01.321Z,11.07
2018-07-31T00:54:06.922Z,11.20
2018-07-31T00:55:12.881Z,12.20
2018-07-31T00:56:18.497Z,11.27
2018-07-31T00:57:24.264Z,10.43
2018-07-31T00:58:29.931Z,10.47
2018-07-31T00:59:35.428Z,10.53
2018-07-31T01:00:41.340Z,10.60
2018-07-31T01:01:46.964Z,9.73
2018-07-31T01:02:52.540Z,9.17
2018-07-31T01:03:57.956Z,8.63
2018-07-31T01:05:03.387Z,8.27
2018-07-31T01:06:09.044Z,9.10
2018-07-31T01:07:15.102Z,9.07
2018-07-31T01:08:21.028Z,8.67
2018-07-31T01:09:26.461Z,9.10
2018-07-31T01:10:31.932Z,8.37
2018-07-31T01:11:37.685Z,8.30
2018-07-31T01:12:44.010Z,8.23
2018-07-31T01:13:49.489Z,7.73
2018-07-31T01:14:54.905Z,7.70
2018-07-31T01:16:00.395Z,8.30
2018-07-31T01:17:06.074Z,7.63
2018-07-31T01:18:12.085Z,8.30
2018-07-31T01:19:17.664Z,8.70
2018-07-31T01:20:23.206Z,8.23
2018-07-31T01:21:28.635Z,7.40
2018-07-31T01:22:34.161Z,7.87
2018-07-31T01:23:39.656Z,7.43
2018-07-31T01:24:45.658Z,6.70
2018-07-31T01:25:51.792Z,6.97
2018-07-31T01:26:57.196Z,7.90
2018-07-31T01:28:02.734Z,7.40
2018-07-31T01:29:08.205Z,7.53
2018-07-31T01:30:14.286Z,7.10
2018-07-31T01:31:20.182Z,7.57
2018-07-31T01:32:25.645Z,6.50
2018-07-31T01:33:31.105Z,7.27
2018-07-31T01:34:36.569Z,7.07
2018-07-31T01:35:42.453Z,7.10
2018-07-31T01:36:48.049Z,6.30
2018-07-31T01:37:53.578Z,7.23
2018-07-31T01:38:59.183Z,6.87
2018-07-31T01:40:05.068Z,7.17
2018-07-31T01:41:10.684Z,6.50
2018-07-31T01:42:16.249Z,6.30
2018-07-31T01:43:21.688Z,6.30
2018-07-31T01:44:27.125Z,6.10
2018-07-31T01:45:32.610Z,7.43
2018-07-31T01:46:38.038Z,6.83
2018-07-31T01:47:43.775Z,6.03
2018-07-31T01:48:49.328Z,6.10
2018-07-31T01:49:54.741Z,6.17
2018-07-31T01:51:00.135Z,6.77
2018-07-31T01:52:05.548Z,6.50
2018-07-31T01:53:11.650Z,5.33
2018-07-31T01:54:17.489Z,7.00
2018-07-31T01:55:23.063Z,6.53
2018-07-31T01:56:28.457Z,5.90
2018-07-31T01:57:34.215Z,6.60
2018-07-31T01:58:39.779Z,5.80
2018-07-31T01:59:46.209Z,6.60
2018-07-31T02:00:51.646Z,6.67
2018-07-31T02:01:57.074Z,6.47
2018-07-31T02:03:02.517Z,6.33
2018-07-31T02:04:08.180Z,6.20
2018-07-31T02:05:15.068Z,6.23
2018-07-31T02:06:24.790Z,6.10
2018-07-31T02:07:30.558Z,7.40
2018-07-31T02:08:36.053Z,5.50
2018-07-31T02:09:41.890Z,6.20
2018-07-31T02:10:49.168Z,5.80
2018-07-31T02:11:54.651Z,6.50
2018-07-31T02:13:00.537Z,6.97
2018-07-31T02:14:06.106Z,6.37
2018-07-31T02:15:11.859Z,6.27
2018-07-31T02:16:17.666Z,6.57
2018-07-31T02:17:23.308Z,5.63
2018-07-31T02:18:28.750Z,5.60
2018-07-31T02:19:34.196Z,5.40
2018-07-31T02:20:40.240Z,6.10
2018-07-31T02:21:45.805Z,6.40
2018-07-31T02:22:51.482Z,5.30
2018-07-31T02:23:56.902Z,5.83
2018-07-31T02:25:02.663Z,5.53
2018-07-31T02:26:08.091Z,6.90
2018-07-31T02:27:14.009Z,5.90
2018-07-31T02:28:19.566Z,6.67
2018-07-31T02:29:30.079Z,6.57
2018-07-31T02:30:35.600Z,6.93
2018-07-31T02:31:41.201Z,7.30
2018-07-31T02:32:46.746Z,5.93
2018-07-31T02:33:52.166Z,6.37
2018-07-31T02:34:57.544Z,6.13
2018-07-31T02:36:02.990Z,5.83
2018-07-31T02:37:08.430Z,5.20
2018-07-31T02:38:14.426Z,6.93
2018-07-31T02:39:19.847Z,6.77
2018-07-31T02:40:25.313Z,6.73
2018-07-31T02:41:30.728Z,5.80
2018-07-31T02:42:36.198Z,6.93
2018-07-31T02:43:42.073Z,7.13
2018-07-31T02:44:47.598Z,6.13
2018-07-31T02:45:53.041Z,7.27
2018-07-31T02:46:58.574Z,7.00
2018-07-31T02:48:03.988Z,7.40
2018-07-31T02:49:09.453Z,7.17
2018-07-31T02:50:15.096Z,6.60
2018-07-31T02:51:20.666Z,5.30
2018-07-31T02:52:26.072Z,6.17
2018-07-31T02:53:31.464Z,7.80
2018-07-31T02:54:36.954Z,6.40
2018-07-31T02:55:43.142Z,5.70
2018-07-31T02:56:48.919Z,5.97
2018-07-31T02:57:54.016Z,5.90
2018-07-31T02:58:59.329Z,7.17
2018-07-31T03:00:06.135Z,6.77
2018-07-31T03:01:11.976Z,6.93
2018-07-31T03:02:17.522Z,6.40
2018-07-31T03:03:22.929Z,7.70
2018-07-31T03:04:28.380Z,7.40
2018-07-31T03:05:33.848Z,6.77
2018-07-31T03:06:39.256Z,7.20
2018-07-31T03:07:45.619Z,6.70
2018-07-31T03:08:51.081Z,7.07
2018-07-31T03:09:56.553Z,6.50
2018-07-31T03:11:02.032Z,6.77
2018-07-31T03:12:07.467Z,7.33
2018-07-31T03:13:13.672Z,7.80
2018-07-31T03:14:19.818Z,7.40
2018-07-31T03:15:25.244Z,8.03
2018-07-31T03:16:30.682Z,6.80
2018-07-31T03:17:36.193Z,6.80
2018-07-31T03:18:42.150Z,7.00
2018-07-31T03:19:47.908Z,6.33
2018-07-31T03:20:53.345Z,7.10
2018-07-31T03:21:58.790Z,6.67
2018-07-31T03:23:04.352Z,7.07
2018-07-31T03:24:09.799Z,7.40
2018-07-31T03:25:16.362Z,7.67
2018-07-31T03:26:22.077Z,7.50
2018-07-31T03:27:27.593Z,8.00
2018-07-31T03:28:33.047Z,7.17
2018-07-31T03:29:38.485Z,7.23
2018-07-31T03:30:44.505Z,6.17
2018-07-31T03:31:50.061Z,6.70
2018-07-31T03:32:55.186Z,7.10
2018-07-31T03:34:00.513Z,7.87
2018-07-31T03:35:06.752Z,7.03
2018-07-31T03:36:12.625Z,6.70
2018-07-31T03:37:18.857Z,8.13
2018-07-31T03:38:24.548Z,8.33
2018-07-31T03:39:29.997Z,8.27
2018-07-31T03:40:35.840Z,8.00
2018-07-31T03:41:42.360Z,8.10
2018-07-31T03:42:48.089Z,7.23
2018-07-31T03:43:53.499Z,7.53
2018-07-31T03:44:58.921Z,7.23
2018-07-31T03:46:04.598Z,7.83
2018-07-31T03:47:10.249Z,7.97
2018-07-31T03:48:16.363Z,8.50
2018-07-31T03:49:21.846Z,7.60
2018-07-31T03:50:27.347Z,8.70
2018-07-31T03:51:32.848Z,8.00
2018-07-31T03:52:38.316Z,8.50
2018-07-31T03:53:44.116Z,7.67
2018-07-31T03:54:49.801Z,8.30
2018-07-31T03:55:55.231Z,8.13
2018-07-31T03:57:00.679Z,8.50
2018-07-31T03:58:06.266Z,7.47
2018-07-31T03:59:11.805Z,7.93
2018-07-31T04:00:17.681Z,7.83
2018-07-31T04:01:23.120Z,8.40
2018-07-31T04:02:28.560Z,8.13
2018-07-31T04:03:34.027Z,6.97
2018-07-31T04:04:39.696Z,7.37
2018-07-31T04:05:45.795Z,7.73
2018-07-31T04:06:51.268Z,7.20
2018-07-31T04:07:56.695Z,7.13
2018-07-31T04:09:02.131Z,7.50
2018-07-31T04:10:07.724Z,6.90
2018-07-31T04:11:14.549Z,7.23
2018-07-31T04:12:20.246Z,6.70
2018-07-31T04:13:25.700Z,7.60
2018-07-31T04:14:31.166Z,7.23
2018-07-31T04:15:36.862Z,7.20
2018-07-31T04:16:43.072Z,6.97
2018-07-31T04:17:52.580Z,7.37
2018-07-31T04:18:57.986Z,6.70
2018-07-31T04:20:03.452Z,7.17
2018-07-31T04:21:09.274Z,7.40
2018-07-31T04:22:15.396Z,7.40
2018-07-31T04:23:20.934Z,7.40
2018-07-31T04:24:26.416Z,7.40
2018-07-31T04:25:31.853Z,7.30
2018-07-31T04:26:37.299Z,7.10
2018-07-31T04:27:42.709Z,7.00
2018-07-31T04:28:48.153Z,6.70
2018-07-31T04:29:53.572Z,6.77
2018-07-31T04:30:59.266Z,6.80
2018-07-31T04:32:04.776Z,6.47
2018-07-31T04:33:10.315Z,6.80
2018-07-31T04:34:16.400Z,6.87
2018-07-31T04:35:21.933Z,7.70
2018-07-31T04:36:27.157Z,6.90
2018-07-31T04:37:32.566Z,7.43
2018-07-31T04:38:38.271Z,7.17
2018-07-31T04:39:44.977Z,6.67
2018-07-31T04:40:50.616Z,6.40
2018-07-31T04:41:56.068Z,8.80
2018-07-31T04:43:01.566Z,7.27
2018-07-31T04:44:07.218Z,7.30
2018-07-31T04:45:13.132Z,6.57
2018-07-31T04:46:18.877Z,6.60
2018-07-31T04:47:24.389Z,6.80
2018-07-31T04:48:29.814Z,7.40
2018-07-31T04:49:35.272Z,6.77
2018-07-31T04:50:41.062Z,7.30
2018-07-31T04:51:46.994Z,6.03
2018-07-31T04:52:52.742Z,5.60
2018-07-31T04:53:58.179Z,7.27
2018-07-31T04:55:03.737Z,6.93
2018-07-31T04:56:09.198Z,6.77
2018-07-31T04:57:15.261Z,6.77
2018-07-31T04:58:20.685Z,6.80
2018-07-31T04:59:26.189Z,7.33
2018-07-31T05:00:31.824Z,7.47
2018-07-31T05:01:37.230Z,6.90
2018-07-31T05:02:42.673Z,7.93
2018-07-31T05:03:48.156Z,7.80
2018-07-31T05:04:53.605Z,7.13
2018-07-31T05:05:59.072Z,7.87
2018-07-31T05:07:04.577Z,8.37
2018-07-31T05:08:10.061Z,8.23
2018-07-31T05:09:15.561Z,8.67
2018-07-31T05:10:21.076Z,7.50
2018-07-31T05:11:26.526Z,7.90
2018-07-31T05:12:31.936Z,7.00
2018-07-31T05:13:37.485Z,6.67
2018-07-31T05:14:43.088Z,7.30
2018-07-31T05:15:49.402Z,7.30
2018-07-31T05:16:54.861Z,7.67
2018-07-31T05:18:00.284Z,7.67
2018-07-31T05:19:06.056Z,7.77
2018-07-31T05:20:11.954Z,8.40
2018-07-31T05:21:18.261Z,7.53
2018-07-31T05:22:23.724Z,8.23
2018-07-31T05:23:29.129Z,7.67
2018-07-31T05:24:34.554Z,7.80
2018-07-31T05:25:39.967Z,8.20
2018-07-31T05:26:45.720Z,8.83
2018-07-31T05:27:51.321Z,8.13
2018-07-31T05:28:56.818Z,8.20
2018-07-31T05:30:02.517Z,7.97
2018-07-31T05:31:07.971Z,7.93
2018-07-31T05:32:13.488Z,7.40
2018-07-31T05:33:19.729Z,7.77
2018-07-31T05:34:25.156Z,8.30
2018-07-31T05:35:30.605Z,8.23
2018-07-31T05:36:36.279Z,7.50
2018-07-31T05:37:41.728Z,8.30
2018-07-31T05:38:47.222Z,8.20
2018-07-31T05:39:52.705Z,7.90
2018-07-31T05:40:58.161Z,7.50
2018-07-31T05:42:03.686Z,8.67
2018-07-31T05:43:09.138Z,8.77
2018-07-31T05:44:15.223Z,7.73
2018-07-31T05:45:21.073Z,7.90
2018-07-31T05:46:26.591Z,8.10
2018-07-31T05:47:32.024Z,8.07
2018-07-31T05:48:37.538Z,7.80
2018-07-31T05:49:42.979Z,8.80
2018-07-31T05:50:49.081Z,8.37
2018-07-31T05:51:54.551Z,8.67
2018-07-31T05:53:00.015Z,9.20
2018-07-31T05:54:05.718Z,8.40
2018-07-31T05:55:11.162Z,8.97
2018-07-31T05:56:17.095Z,8.67
2018-07-31T05:57:22.679Z,8.70
2018-07-31T05:58:28.190Z,7.60
2018-07-31T05:59:33.593Z,7.90
2018-07-31T06:00:39.436Z,8.93
2018-07-31T06:01:45.098Z,8.13
2018-07-31T06:02:50.615Z,7.70
2018-07-31T06:03:55.705Z,8.87
2018-07-31T06:05:01.081Z,7.97
2018-07-31T06:06:06.973Z,8.50
2018-07-31T06:07:12.437Z,8.33
2018-07-31T06:08:18.356Z,8.83
2018-07-31T06:09:23.824Z,8.90
2018-07-31T06:10:29.256Z,8.80
2018-07-31T06:11:34.714Z,8.20
2018-07-31T06:12:40.150Z,8.77
2018-07-31T06:13:46.098Z,8.03
2018-07-31T06:14:51.760Z,8.87
2018-07-31T06:15:57.210Z,8.20
2018-07-31T06:17:02.711Z,8.50
2018-07-31T06:18:08.213Z,9.23
2018-07-31T06:19:13.785Z,8.40
2018-07-31T06:20:19.513Z,9.50
2018-07-31T06:21:24.957Z,8.77
2018-07-31T06:22:30.420Z,9.00
2018-07-31T06:23:35.819Z,8.17
2018-07-31T06:24:41.303Z,8.17
2018-07-31T06:25:47.782Z,8.23
2018-07-31T06:26:53.241Z,8.60
2018-07-31T06:27:58.599Z,8.30
2018-07-31T06:29:04.179Z,8.67
2018-07-31T06:30:12.709Z,8.10
2018-07-31T06:31:18.201Z,8.80
2018-07-31T06:32:23.652Z,8.53
2018-07-31T06:33:29.131Z,9.20
2018-07-31T06:34:34.564Z,9.03
2018-07-31T06:35:40.087Z,10.10
2018-07-31T06:36:45.630Z,9.47
2018-07-31T06:37:51.089Z,9.20
2018-07-31T06:38:56.536Z,9.23
2018-07-31T06:40:01.964Z,9.73
2018-07-31T06:41:07.817Z,9.20
2018-07-31T06:42:13.280Z,9.83
2018-07-31T06:43:18.905Z,10.30
2018-07-31T06:44:24.457Z,10.60
2018-07-31T06:45:30.694Z,9.40
2018-07-31T06:46:36.413Z,9.20
2018-07-31T06:47:41.826Z,9.27
2018-07-31T06:48:47.559Z,10.30
2018-07-31T06:49:53.106Z,9.90
2018-07-31T06:50:58.574Z,8.80
2018-07-31T06:52:04.046Z,9.63
2018-07-31T06:53:09.658Z,9.40
2018-07-31T06:54:15.486Z,9.10
2018-07-31T06:55:21.054Z,10.10
2018-07-31T06:56:26.514Z,9.90
2018-07-31T06:57:31.976Z,9.10
2018-07-31T06:58:37.460Z,8.90
2018-07-31T06:59:42.966Z,9.00
2018-07-31T07:00:48.615Z,9.60
2018-07-31T07:01:54.239Z,9.00
2018-07-31T07:02:59.646Z,9.90
2018-07-31T07:04:05.325Z,9.07
2018-07-31T07:05:10.824Z,9.67
2018-07-31T07:06:16.644Z,9.73
2018-07-31T07:07:22.194Z,9.70
2018-07-31T07:08:27.614Z,9.83
2018-07-31T07:09:33.075Z,9.20
2018-07-31T07:10:38.557Z,9.10
2018-07-31T07:11:44.128Z,9.33
2018-07-31T07:12:49.829Z,8.73
2018-07-31T07:13:55.354Z,8.97
2018-07-31T07:15:01.058Z,8.93
2018-07-31T07:16:06.526Z,10.10
2018-07-31T07:17:12.514Z,9.30
2018-07-31T07:18:18.162Z,9.57
2018-07-31T07:19:23.681Z,8.40
2018-07-31T07:20:29.133Z,9.50
2018-07-31T07:21:34.577Z,8.47
2018-07-31T07:22:40.104Z,8.40
2018-07-31T07:23:45.796Z,9.27
2018-07-31T07:24:51.430Z,8.37
2018-07-31T07:25:56.908Z,8.70
2018-07-31T07:27:02.336Z,10.10
2018-07-31T07:28:07.762Z,8.37
2018-07-31T07:29:13.287Z,9.00
2018-07-31T07:30:19.033Z,7.40
2018-07-31T07:31:24.600Z,7.67
2018-07-31T07:32:30.101Z,7.13
2018-07-31T07:33:35.601Z,7.80
2018-07-31T07:34:40.980Z,7.10
2018-07-31T07:35:46.635Z,6.93
2018-07-31T07:36:52.373Z,7.10
2018-07-31T07:37:57.860Z,8.40
2018-07-31T07:39:03.949Z,7.20
2018-07-31T07:40:09.389Z,7.70
2018-07-31T07:41:15.111Z,6.30
2018-07-31T07:42:20.982Z,8.40
2018-07-31T07:43:26.396Z,7.00
2018-07-31T07:44:31.860Z,7.57
2018-07-31T07:45:37.273Z,6.93
2018-07-31T07:46:42.771Z,6.97
2018-07-31T07:47:48.568Z,6.80
2018-07-31T07:48:54.281Z,6.23
2018-07-31T07:49:59.752Z,7.00
2018-07-31T07:51:05.202Z,7.53
2018-07-31T07:52:10.719Z,5.80
2018-07-31T07:53:16.647Z,5.70
2018-07-31T07:54:22.198Z,5.73
2018-07-31T07:55:27.613Z,6.10
2018-07-31T07:56:33.076Z,5.90
2018-07-31T07:57:38.504Z,6.37
2018-07-31T07:58:44.041Z,5.47
2018-07-31T07:59:49.801Z,6.60
2018-07-31T08:00:55.313Z,6.27
2018-07-31T08:02:00.744Z,5.37
2018-07-31T08:03:06.238Z,5.90
2018-07-31T08:04:12.089Z,5.63
2018-07-31T08:05:17.765Z,6.60
2018-07-31T08:06:23.377Z,5.43
2018-07-31T08:07:28.798Z,6.00
2018-07-31T08:08:34.232Z,6.43
2018-07-31T08:09:39.693Z,6.30
2018-07-31T08:10:45.450Z,5.37
2018-07-31T08:11:51.050Z,6.60
2018-07-31T08:12:57.080Z,5.07
2018-07-31T08:14:02.540Z,5.77
2018-07-31T08:15:08.131Z,5.77
2018-07-31T08:16:13.667Z,6.10
2018-07-31T08:17:19.221Z,5.30
2018-07-31T08:18:24.726Z,5.37
2018-07-31T08:19:30.152Z,5.13
2018-07-31T08:20:36.034Z,5.53
2018-07-31T08:21:41.498Z,5.70
2018-07-31T08:22:47.248Z,5.03
2018-07-31T08:23:52.900Z,5.37
2018-07-31T08:24:58.338Z,5.03
2018-07-31T08:26:03.816Z,6.50
2018-07-31T08:27:09.241Z,4.97
2018-07-31T08:28:14.953Z,5.57
2018-07-31T08:29:20.470Z,5.00
2018-07-31T08:30:25.956Z,5.57
2018-07-31T08:31:31.438Z,4.97
2018-07-31T08:32:36.880Z,4.80
2018-07-31T08:33:42.494Z,5.30
2018-07-31T08:34:48.243Z,5.57
2018-07-31T08:35:53.829Z,5.17
2018-07-31T08:36:59.337Z,5.43
2018-07-31T08:38:04.783Z,5.33
2018-07-31T08:39:11.114Z,5.53
2018-07-31T08:40:16.600Z,5.70
2018-07-31T08:41:22.242Z,5.67
2018-07-31T08:42:27.717Z,5.63
2018-07-31T08:43:33.148Z,5.67
2018-07-31T08:44:38.653Z,5.93
2018-07-31T08:45:44.361Z,5.83
2018-07-31T08:46:49.980Z,5.10
2018-07-31T08:47:55.441Z,5.60
2018-07-31T08:49:00.899Z,5.97
2018-07-31T08:50:07.004Z,5.80
2018-07-31T08:51:12.655Z,5.40
2018-07-31T08:52:18.483Z,5.90
2018-07-31T08:53:24.076Z,5.57
2018-07-31T08:54:29.519Z,5.70
2018-07-31T08:55:35.051Z,5.90
2018-07-31T08:56:40.513Z,5.67
2018-07-31T08:57:46.346Z,4.73
2018-07-31T08:58:51.988Z,4.90
2018-07-31T08:59:57.476Z,5.83
2018-07-31T09:01:02.928Z,6.63
2018-07-31T09:02:08.612Z,7.60
2018-07-31T09:03:14.223Z,7.20
2018-07-31T09:04:19.714Z,7.10
2018-07-31T09:05:25.212Z,6.43
2018-07-31T09:06:30.821Z,5.90
2018-07-31T09:07:36.560Z,6.60
2018-07-31T09:08:42.279Z,6.73
2018-07-31T09:09:47.668Z,6.37
2018-07-31T09:10:53.172Z,6.20
2018-07-31T09:11:58.678Z,6.20
2018-07-31T09:13:04.158Z,6.30
2018-07-31T09:14:09.819Z,7.03
2018-07-31T09:15:15.417Z,6.27
2018-07-31T09:16:20.985Z,5.30
2018-07-31T09:17:26.476Z,5.77
2018-07-31T09:18:31.909Z,6.00
2018-07-31T09:19:37.434Z,5.40
2018-07-31T09:20:43.029Z,5.00
2018-07-31T09:21:48.715Z,5.07
2018-07-31T09:22:54.150Z,5.17
2018-07-31T09:23:59.650Z,5.27
2018-07-31T09:25:05.545Z,5.40
2018-07-31T09:26:11.152Z,4.87
2018-07-31T09:27:16.693Z,4.17
2018-07-31T09:28:22.212Z,5.47
2018-07-31T09:29:27.627Z,5.10
2018-07-31T09:30:33.126Z,4.20
2018-07-31T09:31:38.554Z,5.03
2018-07-31T09:33:16.903Z,4.53
2018-07-31T09:34:22.522Z,3.67
2018-07-31T09:35:27.934Z,3.63
2018-07-31T09:36:33.434Z,3.50
2018-07-31T09:37:38.865Z,3.70
2018-07-31T09:38:44.364Z,3.90
2018-07-31T09:39:49.805Z,3.00
2018-07-31T09:40:55.249Z,3.73
2018-07-31T09:42:00.702Z,4.23
2018-07-31T09:43:06.165Z,3.80
2018-07-31T09:44:11.594Z,4.07
2018-07-31T09:45:17.213Z,4.30
2018-07-31T09:46:22.636Z,3.73
2018-07-31T09:47:28.061Z,3.33
2018-07-31T09:48:33.558Z,3.60
2018-07-31T09:49:38.957Z,3.50
2018-07-31T09:50:44.777Z,3.30
2018-07-31T09:51:50.206Z,3.23
2018-07-31T09:52:55.717Z,3.30
2018-07-31T09:54:01.177Z,3.83
2018-07-31T09:55:06.704Z,4.03
2018-07-31T09:56:12.244Z,3.47
2018-07-31T09:57:17.816Z,3.23
2018-07-31T09:58:23.300Z,3.97
2018-07-31T09:59:28.716Z,2.40
2018-07-31T10:00:39.288Z,3.23
2018-07-31T10:01:44.911Z,2.70
2018-07-31T10:02:50.368Z,2.40
2018-07-31T10:03:55.807Z,3.03
2018-07-31T10:05:01.296Z,2.80
2018-07-31T10:06:06.833Z,2.93
2018-07-31T10:07:12.459Z,3.17
2018-07-31T10:08:21.097Z,3.63
2018-07-31T10:09:26.590Z,2.97
2018-07-31T10:10:32.087Z,2.93
2018-07-31T10:11:37.652Z,3.20
2018-07-31T10:12:43.145Z,3.20
2018-07-31T10:13:48.857Z,3.00
2018-07-31T10:14:54.340Z,2.97
2018-07-31T10:15:59.772Z,3.20
2018-07-31T10:17:05.184Z,3.40
2018-07-31T10:18:10.890Z,3.80
2018-07-31T10:19:16.322Z,3.33
2018-07-31T10:20:22.001Z,3.00
2018-07-31T10:21:27.506Z,3.10
2018-07-31T10:22:32.985Z,3.77
2018-07-31T10:23:38.488Z,3.33
2018-07-31T10:24:44.093Z,3.67
2018-07-31T10:25:49.777Z,3.60
2018-07-31T10:26:55.380Z,3.17
2018-07-31T10:28:00.863Z,3.07
2018-07-31T10:29:06.555Z,3.90
2018-07-31T10:30:11.978Z,2.90
2018-07-31T10:31:17.700Z,3.40
2018-07-31T10:32:23.288Z,3.47
2018-07-31T10:33:28.752Z,3.07
2018-07-31T10:34:34.189Z,2.77
2018-07-31T10:35:39.644Z,2.40
2018-07-31T10:36:45.430Z,3.00
2018-07-31T10:37:51.125Z,3.30
2018-07-31T10:38:56.653Z,2.70
2018-07-31T10:40:02.061Z,3.43
2018-07-31T10:41:07.645Z,2.97
2018-07-31T10:42:13.135Z,3.67
2018-07-31T10:43:18.730Z,2.90
2018-07-31T10:44:24.440Z,3.30
2018-07-31T10:45:29.869Z,3.50
2018-07-31T10:46:35.488Z,3.30
2018-07-31T10:47:40.951Z,3.03
2018-07-31T10:48:46.791Z,3.40
2018-07-31T10:49:52.371Z,3.57
2018-07-31T10:50:57.879Z,3.60
2018-07-31T10:52:03.312Z,3.20
2018-07-31T10:53:08.778Z,3.63
2018-07-31T10:54:14.458Z,3.20
2018-07-31T10:55:20.203Z,2.73
2018-07-31T10:56:25.770Z,2.70
2018-07-31T10:57:31.214Z,2.90
2018-07-31T10:58:36.768Z,2.63
2018-07-31T10:59:42.193Z,3.20
2018-07-31T11:00:47.990Z,3.10
2018-07-31T11:01:53.508Z,3.43
2018-07-31T11:02:58.955Z,2.60
2018-07-31T11:04:04.658Z,2.97
2018-07-31T11:05:10.191Z,2.77
2018-07-31T11:06:16.280Z,2.60
2018-07-31T11:07:22.038Z,2.70
2018-07-31T11:08:27.500Z,2.37
2018-07-31T11:09:32.982Z,2.10
2018-07-31T11:10:38.417Z,2.10
2018-07-31T11:11:43.895Z,1.80
2018-07-31T11:12:49.410Z,2.10
2018-07-31T11:13:54.589Z,2.30
2018-07-31T11:14:59.978Z,2.43
2018-07-31T11:16:05.464Z,2.20
2018-07-31T11:17:10.960Z,1.77
2018-07-31T11:18:16.506Z,2.17
2018-07-31T11:19:21.977Z,1.80
2018-07-31T11:20:27.421Z,1.70
2018-07-31T11:21:33.026Z,2.27
2018-07-31T11:22:38.550Z,3.37
2018-07-31T11:23:44.000Z,2.23
2018-07-31T11:24:49.545Z,2.10
2018-07-31T11:25:55.148Z,1.73
2018-07-31T11:27:00.594Z,2.20
2018-07-31T11:28:06.342Z,1.87
2018-07-31T11:29:11.769Z,2.30
2018-07-31T11:30:17.256Z,1.87
2018-07-31T11:31:22.709Z,2.33
2018-07-31T11:32:28.606Z,1.77
2018-07-31T11:33:34.170Z,1.70
2018-07-31T11:34:39.597Z,2.20
2018-07-31T11:35:45.136Z,2.67
2018-07-31T11:36:50.611Z,2.30
2018-07-31T11:37:56.059Z,2.37
2018-07-31T11:39:01.557Z,1.83
2018-07-31T11:40:07.165Z,1.93
2018-07-31T11:41:13.326Z,2.40
2018-07-31T11:42:18.804Z,2.60
2018-07-31T11:43:24.425Z,1.70
2018-07-31T11:44:29.860Z,2.03
2018-07-31T11:45:35.319Z,2.00
2018-07-31T11:46:40.756Z,2.03
2018-07-31T11:47:46.590Z,2.10
2018-07-31T11:48:52.123Z,2.60
2018-07-31T11:49:57.652Z,3.23
2018-07-31T11:51:03.701Z,2.70
2018-07-31T11:52:09.227Z,2.47
2018-07-31T11:53:14.497Z,2.63
2018-07-31T11:54:20.009Z,2.73
2018-07-31T11:55:25.564Z,2.60
2018-07-31T11:56:31.115Z,2.83
2018-07-31T11:57:37.288Z,2.63
2018-07-31T11:58:42.985Z,2.90
2018-07-31T11:59:48.584Z,2.60
2018-07-31T12:00:54.126Z,3.27
2018-07-31T12:01:59.638Z,2.80
2018-07-31T12:03:05.170Z,3.17
2018-07-31T12:04:11.060Z,2.63
2018-07-31T12:05:16.828Z,3.03
2018-07-31T12:06:22.299Z,3.00
2018-07-31T12:07:27.763Z,3.60
2018-07-31T12:08:34.905Z,3.17
2018-07-31T12:09:40.499Z,3.63
2018-07-31T12:10:46.370Z,3.37
2018-07-31T12:11:52.041Z,3.70
2018-07-31T12:12:57.556Z,3.40
2018-07-31T12:14:03.041Z,3.67
2018-07-31T12:15:08.520Z,3.47
2018-07-31T12:16:14.064Z,3.80
2018-07-31T12:17:19.696Z,3.80
2018-07-31T12:18:25.094Z,3.67
2018-07-31T12:19:30.872Z,3.30
2018-07-31T12:20:36.326Z,3.40
2018-07-31T12:21:41.785Z,3.57
2018-07-31T12:22:47.544Z,3.77
2018-07-31T12:23:53.069Z,2.77
2018-07-31T12:24:58.543Z,2.80
2018-07-31T12:26:04.080Z,3.10
2018-07-31T12:27:09.663Z,2.63
2018-07-31T12:28:16.112Z,2.03
2018-07-31T12:29:22.309Z,2.27
2018-07-31T12:30:27.803Z,2.17
2018-07-31T12:31:33.318Z,2.10
2018-07-31T12:32:39.191Z,2.30
2018-07-31T12:33:45.750Z,1.90
2018-07-31T12:34:51.428Z,2.20
2018-07-31T12:35:56.930Z,1.97
2018-07-31T12:37:02.362Z,2.03
2018-07-31T12:38:08.488Z,1.83
2018-07-31T12:39:14.044Z,1.83
2018-07-31T12:40:19.681Z,1.97
2018-07-31T12:41:25.145Z,2.27
2018-07-31T12:42:30.599Z,2.27
2018-07-31T12:43:36.037Z,1.90
2018-07-31T12:44:41.721Z,1.80
2018-07-31T12:45:47.592Z,2.17
2018-07-31T12:46:53.197Z,1.83
2018-07-31T12:47:58.639Z,1.90
2018-07-31T12:49:04.159Z,1.83
2018-07-31T12:50:09.749Z,1.83
2018-07-31T12:51:15.412Z,2.17
2018-07-31T12:52:21.196Z,1.70
2018-07-31T12:53:26.728Z,1.60
2018-07-31T12:54:32.236Z,2.03
2018-07-31T12:55:37.853Z,2.00
2018-07-31T12:56:43.424Z,1.90
2018-07-31T12:57:49.173Z,1.80
2018-07-31T12:58:54.777Z,1.97
2018-07-31T13:00:00.339Z,1.47
2018-07-31T13:01:06.518Z,1.63
2018-07-31T13:02:11.955Z,1.77
2018-07-31T13:03:17.716Z,1.50
2018-07-31T13:04:23.428Z,1.40
2018-07-31T13:05:28.840Z,1.37
2018-07-31T13:06:34.362Z,1.33
2018-07-31T13:07:39.876Z,2.70
2018-07-31T13:08:45.347Z,3.30
2018-07-31T13:09:51.102Z,3.60
2018-07-31T13:10:56.639Z,3.80
2018-07-31T13:12:02.285Z,4.27
2018-07-31T13:13:07.910Z,4.67
2018-07-31T13:14:13.439Z,4.73
2018-07-31T13:15:19.408Z,4.27
2018-07-31T13:16:24.876Z,4.30
2018-07-31T13:17:30.320Z,5.37
2018-07-31T13:18:35.785Z,5.30
2018-07-31T13:19:41.502Z,4.73
2018-07-31T13:20:47.023Z,4.90
2018-07-31T13:21:52.400Z,4.10
2018-07-31T13:22:57.872Z,4.60
2018-07-31T13:24:03.351Z,4.03
2018-07-31T13:25:08.830Z,4.43
2018-07-31T13:26:14.386Z,5.53
2018-07-31T13:27:19.972Z,4.73
2018-07-31T13:28:25.447Z,4.00
2018-07-31T13:29:31.044Z,4.60
2018-07-31T13:30:36.531Z,3.73
2018-07-31T13:31:41.966Z,4.40
2018-07-31T13:32:47.686Z,3.40
2018-07-31T13:33:53.532Z,4.23
2018-07-31T13:34:59.121Z,4.30
2018-07-31T13:36:04.726Z,4.50
2018-07-31T13:37:10.642Z,5.57
2018-07-31T13:38:16.383Z,5.70
2018-07-31T13:39:21.929Z,5.57
2018-07-31T13:40:27.384Z,5.80
2018-07-31T13:41:32.834Z,5.30
2018-07-31T13:42:38.283Z,5.53
2018-07-31T13:43:44.129Z,5.37
2018-07-31T13:44:49.781Z,5.37
2018-07-31T13:45:55.248Z,5.93
2018-07-31T13:47:00.699Z,5.30
2018-07-31T13:48:06.241Z,5.67
2018-07-31T13:49:12.424Z,6.00
2018-07-31T13:50:18.218Z,5.77
2018-07-31T13:51:23.747Z,5.10
2018-07-31T13:52:29.228Z,6.10
2018-07-31T13:53:34.688Z,6.40
2018-07-31T13:54:40.142Z,5.30
2018-07-31T13:55:46.277Z,6.30
2018-07-31T13:56:51.924Z,5.40
2018-07-31T13:57:57.395Z,4.90
2018-07-31T13:59:02.845Z,5.00
2018-07-31T14:00:08.416Z,4.73
2018-07-31T14:01:14.056Z,5.67
2018-07-31T14:02:19.832Z,5.10
2018-07-31T14:03:25.389Z,5.50
2018-07-31T14:04:30.854Z,4.53
2018-07-31T14:05:36.276Z,5.17
2018-07-31T14:06:41.725Z,4.60
2018-07-31T14:07:47.645Z,5.37
2018-07-31T14:08:53.180Z,4.63
2018-07-31T14:09:58.679Z,4.80
2018-07-31T14:11:04.160Z,4.90
2018-07-31T14:12:09.651Z,5.53
2018-07-31T14:13:15.364Z,4.40
2018-07-31T14:14:20.937Z,5.00
2018-07-31T14:15:26.434Z,5.00
2018-07-31T14:16:31.891Z,5.10
2018-07-31T14:17:37.429Z,5.47
2018-07-31T14:18:42.955Z,4.87
2018-07-31T14:19:48.481Z,4.67
2018-07-31T14:20:55.658Z,4.90
2018-07-31T14:22:01.360Z,4.83
2018-07-31T14:23:06.851Z,4.90
2018-07-31T14:24:12.445Z,4.77
2018-07-31T14:25:18.647Z,5.03
2018-07-31T14:26:24.224Z,4.77
2018-07-31T14:27:29.680Z,4.50
2018-07-31T14:28:36.494Z,4.40
2018-07-31T14:29:42.432Z,4.30
2018-07-31T14:30:48.241Z,4.73
2018-07-31T14:31:53.769Z,4.53